sensor_id;sensor_type;location;lat;lon;timestamp;pressure;altitude;pressure_sealevel;temperature;humidity
51099;BME280;37146;48.210;16.234;2023-02-18T00:00:56;99039.78;;;11.31;82.95
51099;BME280;37146;48.210;16.234;2023-02-18T00:03:22;99045.00;;;11.50;81.48
51099;BME280;37146;48.210;16.234;2023-02-18T00:05:47;99053.38;;;11.44;81.95
51099;BME280;37146;48.210;16.234;2023-02-18T00:08:13;99039.03;;;11.45;82.03
51099;BME280;37146;48.210;16.234;2023-02-18T00:10:39;99042.66;;;11.44;81.87
51099;BME280;37146;48.210;16.234;2023-02-18T00:13:04;99059.34;;;11.49;81.55
51099;BME280;37146;48.210;16.234;2023-02-18T00:15:30;99050.34;;;11.50;81.60
51099;BME280;37146;48.210;16.234;2023-02-18T00:17:55;99056.06;;;11.44;81.95
51099;BME280;37146;48.210;16.234;2023-02-18T00:20:20;99049.75;;;11.45;82.10
51099;BME280;37146;48.210;16.234;2023-02-18T00:22:45;99053.97;;;11.49;81.83
51099;BME280;37146;48.210;16.234;2023-02-18T00:25:10;99051.91;;;11.38;82.62
51099;BME280;37146;48.210;16.234;2023-02-18T00:27:36;99059.53;;;11.46;82.17
51099;BME280;37146;48.210;16.234;2023-02-18T00:30:01;99060.75;;;11.56;81.54
51099;BME280;37146;48.210;16.234;2023-02-18T00:32:28;99059.34;;;11.49;81.96
51099;BME280;37146;48.210;16.234;2023-02-18T00:34:53;99068.78;;;11.56;81.77
51099;BME280;37146;48.210;16.234;2023-02-18T00:37:18;99066.09;;;11.56;81.80
51099;BME280;37146;48.210;16.234;2023-02-18T00:39:43;99074.06;;;11.58;81.71
51099;BME280;37146;48.210;16.234;2023-02-18T00:42:08;99075.94;;;11.56;81.79
51099;BME280;37146;48.210;16.234;2023-02-18T00:44:34;99064.38;;;11.55;81.73
51099;BME280;37146;48.210;16.234;2023-02-18T00:46:59;99081.66;;;11.50;82.33
51099;BME280;37146;48.210;16.234;2023-02-18T00:49:24;99072.31;;;11.57;81.85
51099;BME280;37146;48.210;16.234;2023-02-18T00:51:49;99071.63;;;11.53;82.19
51099;BME280;37146;48.210;16.234;2023-02-18T00:54:15;99070.94;;;11.50;82.35
51099;BME280;37146;48.210;16.234;2023-02-18T00:56:40;99077.66;;;11.57;82.02
51099;BME280;37146;48.210;16.234;2023-02-18T00:59:05;99072.16;;;11.60;81.67
51099;BME280;37146;48.210;16.234;2023-02-18T01:01:30;99082.63;;;11.65;81.78
51099;BME280;37146;48.210;16.234;2023-02-18T01:03:55;99081.56;;;11.67;81.44
51099;BME280;37146;48.210;16.234;2023-02-18T01:06:21;99080.09;;;11.62;81.90
51099;BME280;37146;48.210;16.234;2023-02-18T01:08:46;99077.41;;;11.62;81.96
51099;BME280;37146;48.210;16.234;2023-02-18T01:11:12;99071.25;;;11.43;82.98
51099;BME280;37146;48.210;16.234;2023-02-18T01:13:38;99083.44;;;11.49;82.81
51099;BME280;37146;48.210;16.234;2023-02-18T01:16:03;99075.78;;;11.59;82.05
51099;BME280;37146;48.210;16.234;2023-02-18T01:18:28;99071.78;;;11.50;82.63
51099;BME280;37146;48.210;16.234;2023-02-18T01:20:54;99067.09;;;11.38;83.45
51099;BME280;37146;48.210;16.234;2023-02-18T01:23:19;99083.53;;;11.48;82.99
51099;BME280;37146;48.210;16.234;2023-02-18T01:25:44;99071.63;;;11.53;82.75
51099;BME280;37146;48.210;16.234;2023-02-18T01:28:11;99076.63;;;11.59;82.51
51099;BME280;37146;48.210;16.234;2023-02-18T01:30:36;99057.63;;;11.64;81.93
51099;BME280;37146;48.210;16.234;2023-02-18T01:33:02;99080.44;;;11.55;82.76
51099;BME280;37146;48.210;16.234;2023-02-18T01:35:27;99065.75;;;11.79;81.24
51099;BME280;37146;48.210;16.234;2023-02-18T01:37:52;99069.81;;;11.70;82.04
51099;BME280;37146;48.210;16.234;2023-02-18T01:40:19;99067.75;;;11.75;81.51
51099;BME280;37146;48.210;16.234;2023-02-18T01:42:45;99058.16;;;11.71;81.86
51099;BME280;37146;48.210;16.234;2023-02-18T01:47:54;99071.47;;;11.72;82.07
51099;BME280;37146;48.210;16.234;2023-02-18T01:50:19;99068.53;;;11.77;81.50
51099;BME280;37146;48.210;16.234;2023-02-18T01:52:44;99054.53;;;11.72;82.07
51099;BME280;37146;48.210;16.234;2023-02-18T01:55:09;99058.41;;;11.66;82.35
51099;BME280;37146;48.210;16.234;2023-02-18T01:57:35;99062.81;;;11.83;81.52
51099;BME280;37146;48.210;16.234;2023-02-18T02:00:05;99069.56;;;11.74;82.23
51099;BME280;37146;48.210;16.234;2023-02-18T02:02:30;99049.16;;;11.72;82.43
51099;BME280;37146;48.210;16.234;2023-02-18T02:04:56;99058.50;;;11.65;82.53
51099;BME280;37146;48.210;16.234;2023-02-18T02:07:22;99055.94;;;11.79;81.75
51099;BME280;37146;48.210;16.234;2023-02-18T02:09:48;99058.84;;;11.74;81.98
51099;BME280;37146;48.210;16.234;2023-02-18T02:15:02;99061.50;;;11.74;82.10
51099;BME280;37146;48.210;16.234;2023-02-18T02:22:45;99071.63;;;11.69;82.29
51099;BME280;37146;48.210;16.234;2023-02-18T02:28:14;99056.94;;;11.76;81.77
51099;BME280;37146;48.210;16.234;2023-02-18T02:31:02;99058.00;;;11.74;81.77
51099;BME280;37146;48.210;16.234;2023-02-18T02:36:08;99060.94;;;11.69;82.50
51099;BME280;37146;48.210;16.234;2023-02-18T02:38:38;99060.81;;;11.71;82.12
51099;BME280;37146;48.210;16.234;2023-02-18T02:51:28;99055.88;;;11.47;83.74
51099;BME280;37146;48.210;16.234;2023-02-18T02:54:07;99065.28;;;11.38;84.44
51099;BME280;37146;48.210;16.234;2023-02-18T02:56:33;99064.00;;;11.45;83.77
51099;BME280;37146;48.210;16.234;2023-02-18T02:59:00;99056.22;;;11.41;84.05
51099;BME280;37146;48.210;16.234;2023-02-18T03:11:33;99065.81;;;11.45;84.14
51099;BME280;37146;48.210;16.234;2023-02-18T03:14:09;99067.28;;;11.35;84.98
51099;BME280;37146;48.210;16.234;2023-02-18T03:19:25;99063.91;;;11.47;84.18
51099;BME280;37146;48.210;16.234;2023-02-18T03:24:15;99049.94;;;11.58;83.24
51099;BME280;37146;48.210;16.234;2023-02-18T03:26:44;99039.31;;;11.56;83.31
51099;BME280;37146;48.210;16.234;2023-02-18T03:29:11;99041.28;;;11.53;83.40
51099;BME280;37146;48.210;16.234;2023-02-18T03:31:38;99050.97;;;11.39;84.30
51099;BME280;37146;48.210;16.234;2023-02-18T03:34:06;99036.19;;;11.48;83.91
51099;BME280;37146;48.210;16.234;2023-02-18T03:36:33;99037.47;;;11.41;84.17
51099;BME280;37146;48.210;16.234;2023-02-18T03:39:00;99033.59;;;11.47;83.79
51099;BME280;37146;48.210;16.234;2023-02-18T03:41:27;99019.50;;;11.43;84.03
51099;BME280;37146;48.210;16.234;2023-02-18T03:43:54;99036.19;;;11.48;83.60
51099;BME280;37146;48.210;16.234;2023-02-18T03:46:24;99037.56;;;11.39;84.20
51099;BME280;37146;48.210;16.234;2023-02-18T03:48:49;99043.19;;;11.35;84.31
51099;BME280;37146;48.210;16.234;2023-02-18T03:51:15;99041.34;;;11.35;84.42
51099;BME280;37146;48.210;16.234;2023-02-18T03:53:40;99031.34;;;11.39;84.10
51099;BME280;37146;48.210;16.234;2023-02-18T03:56:05;99039.78;;;11.31;84.40
51099;BME280;37146;48.210;16.234;2023-02-18T03:58:31;99033.41;;;11.34;84.38
51099;BME280;37146;48.210;16.234;2023-02-18T04:00:56;99045.22;;;11.29;84.51
51099;BME280;37146;48.210;16.234;2023-02-18T04:03:21;99032.69;;;11.30;84.25
51099;BME280;37146;48.210;16.234;2023-02-18T04:05:46;99041.25;;;11.37;83.52
51099;BME280;37146;48.210;16.234;2023-02-18T04:08:12;99025.28;;;11.35;83.53
51099;BME280;37146;48.210;16.234;2023-02-18T04:10:37;99040.03;;;11.26;84.16
51099;BME280;37146;48.210;16.234;2023-02-18T04:13:02;99041.69;;;11.29;84.13
51099;BME280;37146;48.210;16.234;2023-02-18T04:15:28;99028.88;;;11.18;84.37
51099;BME280;37146;48.210;16.234;2023-02-18T04:17:53;99042.72;;;11.26;84.10
51099;BME280;37146;48.210;16.234;2023-02-18T04:20:18;99039.28;;;11.24;84.17
51099;BME280;37146;48.210;16.234;2023-02-18T04:22:43;99039.28;;;11.24;83.85
51099;BME280;37146;48.210;16.234;2023-02-18T04:25:09;99024.56;;;11.16;84.53
51099;BME280;37146;48.210;16.234;2023-02-18T04:27:34;99039.94;;;11.12;84.70
51099;BME280;37146;48.210;16.234;2023-02-18T04:29:59;99036.91;;;11.18;84.57
51099;BME280;37146;48.210;16.234;2023-02-18T04:32:25;99038.75;;;11.18;84.13
51099;BME280;37146;48.210;16.234;2023-02-18T04:34:50;99048.28;;;11.06;84.99
51099;BME280;37146;48.210;16.234;2023-02-18T04:37:15;99040.78;;;11.12;84.65
51099;BME280;37146;48.210;16.234;2023-02-18T04:39:40;99049.41;;;11.02;85.29
51099;BME280;37146;48.210;16.234;2023-02-18T04:42:06;99053.72;;;11.04;85.22
51099;BME280;37146;48.210;16.234;2023-02-18T04:44:33;99048.91;;;11.11;84.21
51099;BME280;37146;48.210;16.234;2023-02-18T04:46:58;99056.06;;;11.10;84.44
51099;BME280;37146;48.210;16.234;2023-02-18T04:49:24;99060.72;;;11.07;84.53
51099;BME280;37146;48.210;16.234;2023-02-18T04:51:49;99069.22;;;10.97;85.45
51099;BME280;37146;48.210;16.234;2023-02-18T04:54:14;99059.38;;;11.16;84.22
51099;BME280;37146;48.210;16.234;2023-02-18T04:56:39;99054.91;;;10.98;85.25
51099;BME280;37146;48.210;16.234;2023-02-18T04:59:05;99067.16;;;11.03;84.96
51099;BME280;37146;48.210;16.234;2023-02-18T05:01:30;99080.22;;;11.09;84.74
51099;BME280;37146;48.210;16.234;2023-02-18T05:03:55;99068.97;;;11.02;85.19
51099;BME280;37146;48.210;16.234;2023-02-18T05:06:20;99089.94;;;10.94;86.04
51099;BME280;37146;48.210;16.234;2023-02-18T05:08:45;99079.78;;;11.01;85.30
51099;BME280;37146;48.210;16.234;2023-02-18T05:11:11;99088.56;;;11.03;85.18
51099;BME280;37146;48.210;16.234;2023-02-18T05:13:36;99074.72;;;11.12;84.55
51099;BME280;37146;48.210;16.234;2023-02-18T05:16:02;99090.31;;;11.04;85.32
51099;BME280;37146;48.210;16.234;2023-02-18T05:18:27;99090.06;;;11.08;84.82
51099;BME280;37146;48.210;16.234;2023-02-18T05:20:52;99094.47;;;11.09;84.77
51099;BME280;37146;48.210;16.234;2023-02-18T05:23:17;99101.88;;;11.04;85.25
51099;BME280;37146;48.210;16.234;2023-02-18T05:25:45;99105.09;;;10.93;85.76
51099;BME280;37146;48.210;16.234;2023-02-18T05:28:10;99098.44;;;11.02;85.48
51099;BME280;37146;48.210;16.234;2023-02-18T05:30:35;99103.22;;;11.13;84.77
51099;BME280;37146;48.210;16.234;2023-02-18T05:33:01;99102.59;;;11.08;85.06
51099;BME280;37146;48.210;16.234;2023-02-18T05:35:26;99111.78;;;11.20;84.48
51099;BME280;37146;48.210;16.234;2023-02-18T05:37:51;99110.13;;;11.17;84.71
51099;BME280;37146;48.210;16.234;2023-02-18T05:40:16;99109.34;;;11.15;84.65
51099;BME280;37146;48.210;16.234;2023-02-18T05:42:41;99113.06;;;11.12;85.06
51099;BME280;37146;48.210;16.234;2023-02-18T05:45:07;99113.38;;;11.06;85.34
51099;BME280;37146;48.210;16.234;2023-02-18T05:47:32;99113.44;;;11.05;85.71
51099;BME280;37146;48.210;16.234;2023-02-18T05:49:57;99128.25;;;10.94;86.40
51099;BME280;37146;48.210;16.234;2023-02-18T05:52:23;99119.59;;;11.07;85.31
51099;BME280;37146;48.210;16.234;2023-02-18T05:54:48;99127.63;;;11.07;85.55
51099;BME280;37146;48.210;16.234;2023-02-18T05:57:13;99122.03;;;11.11;85.16
51099;BME280;37146;48.210;16.234;2023-02-18T05:59:39;99115.44;;;11.19;84.78
51099;BME280;37146;48.210;16.234;2023-02-18T06:02:04;99115.81;;;11.11;85.22
51099;BME280;37146;48.210;16.234;2023-02-18T06:04:29;99111.25;;;11.13;85.23
51099;BME280;37146;48.210;16.234;2023-02-18T06:06:55;99125.75;;;11.09;85.75
51099;BME280;37146;48.210;16.234;2023-02-18T06:09:20;99117.72;;;11.09;86.07
51099;BME280;37146;48.210;16.234;2023-02-18T06:11:45;99126.91;;;11.03;86.47
51099;BME280;37146;48.210;16.234;2023-02-18T06:14:11;99113.28;;;11.08;86.09
51099;BME280;37146;48.210;16.234;2023-02-18T06:16:36;99121.56;;;11.03;86.71
51099;BME280;37146;48.210;16.234;2023-02-18T06:19:01;99120.69;;;11.03;86.82
51099;BME280;37146;48.210;16.234;2023-02-18T06:21:27;99120.94;;;10.98;87.45
51099;BME280;37146;48.210;16.234;2023-02-18T06:23:52;99135.19;;;10.98;87.40
51099;BME280;37146;48.210;16.234;2023-02-18T06:26:17;99119.38;;;10.94;87.95
51099;BME280;37146;48.210;16.234;2023-02-18T06:28:42;99128.09;;;10.97;87.99
51099;BME280;37146;48.210;16.234;2023-02-18T06:31:08;99129.69;;;11.02;87.79
51099;BME280;37146;48.210;16.234;2023-02-18T06:33:33;99130.94;;;11.12;87.02
51099;BME280;37146;48.210;16.234;2023-02-18T06:36:00;99130.75;;;11.15;86.93
51099;BME280;37146;48.210;16.234;2023-02-18T06:38:26;99131.09;;;11.09;87.37
51099;BME280;37146;48.210;16.234;2023-02-18T06:40:51;99133.63;;;11.12;87.25
51099;BME280;37146;48.210;16.234;2023-02-18T06:43:17;99112.13;;;11.13;87.16
51099;BME280;37146;48.210;16.234;2023-02-18T06:45:42;99126.78;;;11.06;87.82
51099;BME280;37146;48.210;16.234;2023-02-18T06:48:08;99124.66;;;11.13;87.83
51099;BME280;37146;48.210;16.234;2023-02-18T06:50:33;99124.22;;;11.21;87.41
51099;BME280;37146;48.210;16.234;2023-02-18T06:52:58;99137.44;;;11.24;87.19
51099;BME280;37146;48.210;16.234;2023-02-18T06:55:24;99119.91;;;11.18;87.73
51099;BME280;37146;48.210;16.234;2023-02-18T06:57:49;99120.09;;;11.31;87.21
51099;BME280;37146;48.210;16.234;2023-02-18T07:00:14;99124.59;;;11.31;87.16
51099;BME280;37146;48.210;16.234;2023-02-18T07:02:40;99115.47;;;11.35;87.20
51099;BME280;37146;48.210;16.234;2023-02-18T07:05:05;99111.81;;;11.36;87.62
51099;BME280;37146;48.210;16.234;2023-02-18T07:07:30;99116.88;;;11.42;86.71
51099;BME280;37146;48.210;16.234;2023-02-18T07:09:55;99128.44;;;11.42;86.90
51099;BME280;37146;48.210;16.234;2023-02-18T07:12:21;99135.75;;;11.56;85.88
51099;BME280;37146;48.210;16.234;2023-02-18T07:14:46;99123.13;;;11.58;85.89
51099;BME280;37146;48.210;16.234;2023-02-18T07:17:11;99128.03;;;11.50;86.38
51099;BME280;37146;48.210;16.234;2023-02-18T07:19:37;99125.88;;;11.57;86.21
51099;BME280;37146;48.210;16.234;2023-02-18T07:22:03;99118.09;;;11.52;86.16
51099;BME280;37146;48.210;16.234;2023-02-18T07:24:28;99117.84;;;11.57;86.27
51099;BME280;37146;48.210;16.234;2023-02-18T07:26:53;99123.31;;;11.55;86.34
51099;BME280;37146;48.210;16.234;2023-02-18T07:29:18;99123.31;;;11.55;86.89
51099;BME280;37146;48.210;16.234;2023-02-18T07:31:43;99112.25;;;11.62;86.63
51099;BME280;37146;48.210;16.234;2023-02-18T07:34:09;99107.78;;;11.62;86.55
51099;BME280;37146;48.210;16.234;2023-02-18T07:36:34;99123.22;;;11.57;86.89
51099;BME280;37146;48.210;16.234;2023-02-18T07:38:59;99119.50;;;11.59;86.79
51099;BME280;37146;48.210;16.234;2023-02-18T07:41:24;99124.69;;;11.63;86.55
51099;BME280;37146;48.210;16.234;2023-02-18T07:43:50;99120.38;;;11.60;87.06
51099;BME280;37146;48.210;16.234;2023-02-18T07:46:15;99128.75;;;11.70;86.90
51099;BME280;37146;48.210;16.234;2023-02-18T07:48:41;99125.22;;;11.69;86.27
51099;BME280;37146;48.210;16.234;2023-02-18T07:51:06;99142.16;;;11.70;87.03
51099;BME280;37146;48.210;16.234;2023-02-18T07:53:32;99133.78;;;11.76;86.56
51099;BME280;37146;48.210;16.234;2023-02-18T07:55:58;99134.47;;;11.64;87.35
51099;BME280;37146;48.210;16.234;2023-02-18T07:58:27;99137.75;;;11.69;87.02
51099;BME280;37146;48.210;16.234;2023-02-18T08:00:54;99137.06;;;11.81;86.31
51099;BME280;37146;48.210;16.234;2023-02-18T08:03:20;99132.59;;;11.82;86.66
51099;BME280;37146;48.210;16.234;2023-02-18T08:05:47;99139.19;;;11.92;86.17
51099;BME280;37146;48.210;16.234;2023-02-18T08:08:16;99137.84;;;12.01;85.52
51099;BME280;37146;48.210;16.234;2023-02-18T08:10:41;99135.91;;;12.03;85.38
51099;BME280;37146;48.210;16.234;2023-02-18T08:13:07;99142.00;;;12.06;85.60
51099;BME280;37146;48.210;16.234;2023-02-18T08:15:32;99120.28;;;12.11;84.71
51099;BME280;37146;48.210;16.234;2023-02-18T08:17:57;99133.34;;;12.17;84.89
51099;BME280;37146;48.210;16.234;2023-02-18T08:20:22;99133.44;;;12.16;84.72
51099;BME280;37146;48.210;16.234;2023-02-18T08:22:48;99131.34;;;12.83;81.31
51099;BME280;37146;48.210;16.234;2023-02-18T08:25:13;99119.91;;;13.55;77.55
51099;BME280;37146;48.210;16.234;2023-02-18T08:27:38;99118.31;;;12.77;80.23
51099;BME280;37146;48.210;16.234;2023-02-18T08:30:04;99131.78;;;13.06;79.68
51099;BME280;37146;48.210;16.234;2023-02-18T08:32:29;99139.78;;;12.92;80.08
51099;BME280;37146;48.210;16.234;2023-02-18T08:34:55;99134.00;;;13.44;78.07
51099;BME280;37146;48.210;16.234;2023-02-18T08:37:20;99137.25;;;13.79;75.99
51099;BME280;37146;48.210;16.234;2023-02-18T08:39:45;99120.50;;;14.17;73.67
51099;BME280;37146;48.210;16.234;2023-02-18T08:42:10;99132.38;;;15.22;69.90
51099;BME280;37146;48.210;16.234;2023-02-18T08:44:36;99116.13;;;15.63;67.56
51099;BME280;37146;48.210;16.234;2023-02-18T08:47:01;99119.94;;;16.47;64.48
51099;BME280;37146;48.210;16.234;2023-02-18T08:49:26;99124.97;;;16.76;63.15
51099;BME280;37146;48.210;16.234;2023-02-18T08:51:51;99131.28;;;16.88;61.96
51099;BME280;37146;48.210;16.234;2023-02-18T08:54:17;99132.69;;;16.69;62.84
51099;BME280;37146;48.210;16.234;2023-02-18T08:56:42;99127.31;;;15.82;65.72
51099;BME280;37146;48.210;16.234;2023-02-18T08:59:08;99131.03;;;16.80;62.97
51099;BME280;37146;48.210;16.234;2023-02-18T09:01:33;99115.88;;;15.66;66.09
51099;BME280;37146;48.210;16.234;2023-02-18T09:03:58;99121.16;;;15.03;68.21
51099;BME280;37146;48.210;16.234;2023-02-18T09:06:23;99125.81;;;15.39;68.02
51099;BME280;37146;48.210;16.234;2023-02-18T09:08:49;99114.88;;;14.89;68.88
51099;BME280;37146;48.210;16.234;2023-02-18T09:11:14;99115.78;;;15.80;66.70
51099;BME280;37146;48.210;16.234;2023-02-18T09:13:39;99112.81;;;16.95;61.41
51099;BME280;37146;48.210;16.234;2023-02-18T09:16:06;99114.19;;;16.52;62.85
51099;BME280;37146;48.210;16.234;2023-02-18T09:18:32;99117.94;;;16.38;62.32
51099;BME280;37146;48.210;16.234;2023-02-18T09:20:59;99119.47;;;15.92;64.19
51099;BME280;37146;48.210;16.234;2023-02-18T09:23:25;99096.53;;;16.83;61.68
51099;BME280;37146;48.210;16.234;2023-02-18T09:25:50;99091.63;;;16.29;63.73
51099;BME280;37146;48.210;16.234;2023-02-18T09:28:16;99099.38;;;16.58;62.61
51099;BME280;37146;48.210;16.234;2023-02-18T09:30:41;99100.03;;;15.22;66.56
51099;BME280;37146;48.210;16.234;2023-02-18T09:33:06;99116.09;;;14.16;71.28
51099;BME280;37146;48.210;16.234;2023-02-18T09:35:31;99105.00;;;13.79;73.89
51099;BME280;37146;48.210;16.234;2023-02-18T09:37:57;99107.31;;;13.85;72.96
51099;BME280;37146;48.210;16.234;2023-02-18T09:40:26;99097.16;;;15.12;68.79
51099;BME280;37146;48.210;16.234;2023-02-18T09:42:54;99100.16;;;15.34;68.15
51099;BME280;37146;48.210;16.234;2023-02-18T09:45:20;99102.84;;;14.40;71.25
51099;BME280;37146;48.210;16.234;2023-02-18T09:47:45;99094.84;;;14.93;69.19
51099;BME280;37146;48.210;16.234;2023-02-18T09:50:13;99104.47;;;14.97;68.88
51099;BME280;37146;48.210;16.234;2023-02-18T09:52:43;99110.41;;;14.20;71.88
51099;BME280;37146;48.210;16.234;2023-02-18T09:55:17;99092.81;;;14.29;71.72
51099;BME280;37146;48.210;16.234;2023-02-18T09:57:44;99098.00;;;13.90;73.23
51099;BME280;37146;48.210;16.234;2023-02-18T10:00:15;99094.22;;;13.93;72.77
51099;BME280;37146;48.210;16.234;2023-02-18T10:02:43;99091.72;;;13.90;73.06
51099;BME280;37146;48.210;16.234;2023-02-18T10:05:11;99095.41;;;13.60;73.42
51099;BME280;37146;48.210;16.234;2023-02-18T10:07:39;99098.38;;;13.84;73.98
51099;BME280;37146;48.210;16.234;2023-02-18T10:10:50;99101.56;;;13.48;74.67
51099;BME280;37146;48.210;16.234;2023-02-18T10:12:50;99092.16;;;13.69;74.31
51099;BME280;37146;48.210;16.234;2023-02-18T10:15:19;99082.28;;;13.70;74.94
51099;BME280;37146;48.210;16.234;2023-02-18T10:17:45;99068.47;;;13.47;73.69
51099;BME280;37146;48.210;16.234;2023-02-18T10:20:15;99086.22;;;13.50;74.27
51099;BME280;37146;48.210;16.234;2023-02-18T10:22:42;99077.91;;;13.38;74.84
51099;BME280;37146;48.210;16.234;2023-02-18T10:25:08;99086.41;;;13.61;74.00
51099;BME280;37146;48.210;16.234;2023-02-18T10:27:41;99064.16;;;14.01;72.05
51099;BME280;37146;48.210;16.234;2023-02-18T10:30:16;99069.97;;;15.03;68.18
51099;BME280;37146;48.210;16.234;2023-02-18T10:32:44;99094.19;;;15.80;65.17
51099;BME280;37146;48.210;16.234;2023-02-18T10:35:18;99061.16;;;15.26;65.78
51099;BME280;37146;48.210;16.234;2023-02-18T10:40:17;99064.22;;;15.85;64.19
51099;BME280;37146;48.210;16.234;2023-02-18T10:50:47;99042.00;;;16.78;60.32
51099;BME280;37146;48.210;16.234;2023-02-18T10:53:14;99050.31;;;16.39;61.40
51099;BME280;37146;48.210;16.234;2023-02-18T10:55:41;99036.56;;;16.67;61.01
51099;BME280;37146;48.210;16.234;2023-02-18T10:58:30;99053.19;;;15.25;63.83
51099;BME280;37146;48.210;16.234;2023-02-18T11:00:53;99050.78;;;15.59;64.37
51099;BME280;37146;48.210;16.234;2023-02-18T11:05:45;99037.22;;;15.35;63.90
51099;BME280;37146;48.210;16.234;2023-02-18T11:08:22;99041.31;;;14.76;65.94
51099;BME280;37146;48.210;16.234;2023-02-18T11:10:48;99031.34;;;14.63;66.58
51099;BME280;37146;48.210;16.234;2023-02-18T11:13:14;99036.78;;;14.49;67.14
51099;BME280;37146;48.210;16.234;2023-02-18T11:16:01;99037.28;;;14.28;67.72
51099;BME280;37146;48.210;16.234;2023-02-18T11:18:31;99020.41;;;14.12;68.91
51099;BME280;37146;48.210;16.234;2023-02-18T11:20:58;99022.09;;;14.27;68.43
51099;BME280;37146;48.210;16.234;2023-02-18T11:23:24;99013.88;;;13.88;68.57
51099;BME280;37146;48.210;16.234;2023-02-18T11:30:43;98994.66;;;14.22;67.66
51099;BME280;37146;48.210;16.234;2023-02-18T11:33:14;98995.97;;;14.02;69.11
51099;BME280;37146;48.210;16.234;2023-02-18T11:35:47;98995.97;;;14.29;67.45
51099;BME280;37146;48.210;16.234;2023-02-18T11:38:17;98998.63;;;13.89;68.85
51099;BME280;37146;48.210;16.234;2023-02-18T11:40:52;99001.38;;;13.87;68.63
51099;BME280;37146;48.210;16.234;2023-02-18T11:43:19;98996.03;;;13.73;69.15
51099;BME280;37146;48.210;16.234;2023-02-18T11:45:44;98986.94;;;13.75;69.74
51099;BME280;37146;48.210;16.234;2023-02-18T11:48:15;98989.47;;;13.64;69.43
51099;BME280;37146;48.210;16.234;2023-02-18T11:50:40;98969.28;;;13.71;68.23
51099;BME280;37146;48.210;16.234;2023-02-18T11:55:53;98984.75;;;13.68;68.43
51099;BME280;37146;48.210;16.234;2023-02-18T11:58:20;98973.34;;;14.19;67.01
51099;BME280;37146;48.210;16.234;2023-02-18T12:00:46;98945.53;;;14.05;67.08
51099;BME280;37146;48.210;16.234;2023-02-18T12:03:26;98951.09;;;14.02;66.75
51099;BME280;37146;48.210;16.234;2023-02-18T12:05:52;98956.09;;;14.09;65.86
51099;BME280;37146;48.210;16.234;2023-02-18T12:08:24;98949.28;;;14.56;64.34
51099;BME280;37146;48.210;16.234;2023-02-18T12:11:01;98931.34;;;14.69;63.89
51099;BME280;37146;48.210;16.234;2023-02-18T12:13:32;98926.91;;;14.94;62.38
51099;BME280;37146;48.210;16.234;2023-02-18T12:21:10;98927.88;;;15.81;59.56
51099;BME280;37146;48.210;16.234;2023-02-18T12:34:34;98867.88;;;15.04;62.26
51099;BME280;37146;48.210;16.234;2023-02-18T12:39:40;98870.94;;;15.48;59.97
51099;BME280;37146;48.210;16.234;2023-02-18T12:42:17;98866.91;;;15.78;59.94
51099;BME280;37146;48.210;16.234;2023-02-18T12:45:12;98868.38;;;16.31;57.50
51099;BME280;37146;48.210;16.234;2023-02-18T12:52:56;98849.72;;;15.68;59.37
51099;BME280;37146;48.210;16.234;2023-02-18T12:58:22;98822.56;;;15.82;58.67
51099;BME280;37146;48.210;16.234;2023-02-18T13:01:01;98823.13;;;15.63;58.16
51099;BME280;37146;48.210;16.234;2023-02-18T13:11:30;98813.47;;;15.72;58.83
51099;BME280;37146;48.210;16.234;2023-02-18T13:16:26;98793.03;;;15.21;58.58
51099;BME280;37146;48.210;16.234;2023-02-18T13:19:06;98783.25;;;15.55;58.38
51099;BME280;37146;48.210;16.234;2023-02-18T13:21:36;98784.38;;;15.88;57.65
51099;BME280;37146;48.210;16.234;2023-02-18T13:24:08;98784.69;;;15.84;57.86
51099;BME280;37146;48.210;16.234;2023-02-18T13:26:34;98785.50;;;15.97;57.00
51099;BME280;37146;48.210;16.234;2023-02-18T13:33:53;98765.66;;;15.38;56.00
51099;BME280;37146;48.210;16.234;2023-02-18T13:36:29;98738.63;;;15.40;55.82
51099;BME280;37146;48.210;16.234;2023-02-18T13:39:06;98737.13;;;15.36;55.74
51099;BME280;37146;48.210;16.234;2023-02-18T13:41:39;98741.53;;;15.37;54.53
51099;BME280;37146;48.210;16.234;2023-02-18T13:44:16;98731.94;;;15.21;54.56
51099;BME280;37146;48.210;16.234;2023-02-18T13:46:54;98725.09;;;15.28;54.71
51099;BME280;37146;48.210;16.234;2023-02-18T13:49:21;98719.72;;;15.28;55.08
51099;BME280;37146;48.210;16.234;2023-02-18T13:51:54;98712.72;;;15.02;55.39
51099;BME280;37146;48.210;16.234;2023-02-18T13:56:52;98688.59;;;15.24;55.23
51099;BME280;37146;48.210;16.234;2023-02-18T14:09:43;98695.44;;;15.17;55.06
51099;BME280;37146;48.210;16.234;2023-02-18T14:12:16;98687.97;;;15.21;55.01
51099;BME280;37146;48.210;16.234;2023-02-18T14:14:42;98708.75;;;15.19;55.41
51099;BME280;37146;48.210;16.234;2023-02-18T14:19:41;98687.69;;;15.12;55.38
51099;BME280;37146;48.210;16.234;2023-02-18T14:22:50;98681.22;;;15.15;55.31
51099;BME280;37146;48.210;16.234;2023-02-18T14:24:59;98691.72;;;14.82;56.18
51099;BME280;37146;48.210;16.234;2023-02-18T14:27:24;98681.38;;;15.00;55.79
51099;BME280;37146;48.210;16.234;2023-02-18T14:29:50;98689.81;;;15.20;55.41
51099;BME280;37146;48.210;16.234;2023-02-18T14:32:16;98681.97;;;15.17;55.15
51099;BME280;37146;48.210;16.234;2023-02-18T14:40:27;98674.91;;;14.79;56.15
51099;BME280;37146;48.210;16.234;2023-02-18T14:42:38;98667.94;;;14.76;56.63
51099;BME280;37146;48.210;16.234;2023-02-18T14:45:09;98655.34;;;14.77;57.05
51099;BME280;37146;48.210;16.234;2023-02-18T14:50:09;98665.44;;;14.49;57.59
51099;BME280;37146;48.210;16.234;2023-02-18T14:55:02;98671.63;;;14.38;58.00
51099;BME280;37146;48.210;16.234;2023-02-18T14:57:43;98664.94;;;14.44;57.83
51099;BME280;37146;48.210;16.234;2023-02-18T15:00:19;98663.66;;;14.74;58.19